createdAt,value
2022-10-17T00:02:39.959Z,17.65
2022-10-17T00:03:46.414Z,17.64
2022-10-17T00:04:52.844Z,17.64
2022-10-17T00:07:05.699Z,17.63
2022-10-17T00:09:18.559Z,17.61
2022-10-17T00:10:24.953Z,17.61
2022-10-17T00:11:49.896Z,17.61
2022-10-17T00:14:39.764Z,17.59
2022-10-17T00:16:23.246Z,17.58
2022-10-17T00:17:30.247Z,17.57
2022-10-17T00:18:55.400Z,17.56
2022-10-17T00:20:20.358Z,17.55
2022-10-17T00:21:45.337Z,17.55
2022-10-17T00:23:10.289Z,17.54
2022-10-17T00:24:35.220Z,17.53
2022-10-17T00:25:41.607Z,17.52
2022-10-17T00:27:54.461Z,17.51
2022-10-17T00:29:19.387Z,17.5
2022-10-17T00:31:02.972Z,17.49
2022-10-17T00:32:46.377Z,17.48
2022-10-17T00:34:29.844Z,17.47
2022-10-17T00:36:13.738Z,17.46
2022-10-17T00:38:15.747Z,17.45
2022-10-17T00:39:40.768Z,17.44
2022-10-17T00:41:24.165Z,17.43
2022-10-17T00:43:07.639Z,17.42
2022-10-17T00:44:51.102Z,17.4
2022-10-17T00:46:16.035Z,17.39
2022-10-17T00:47:40.990Z,17.39
2022-10-17T00:49:05.926Z,17.38
2022-10-17T00:50:30.875Z,17.37
2022-10-17T00:51:55.851Z,17.37
2022-10-17T00:53:20.806Z,17.36
2022-10-17T00:55:04.771Z,17.35
2022-10-17T00:56:11.173Z,17.34
2022-10-17T00:57:36.620Z,17.34
2022-10-17T00:59:01.600Z,17.34
2022-10-17T01:00:26.495Z,17.32
2022-10-17T01:01:51.445Z,17.3
2022-10-17T01:03:16.397Z,17.29
2022-10-17T01:04:41.351Z,17.28
2022-10-17T01:06:06.283Z,17.27
2022-10-17T01:07:33.091Z,17.26
2022-10-17T01:08:56.218Z,17.24
2022-10-17T01:10:39.660Z,17.23
2022-10-17T01:11:46.084Z,17.23
2022-10-17T01:13:11.050Z,17.21
2022-10-17T01:14:35.984Z,17.2
2022-10-17T01:16:48.827Z,17.19
2022-10-17T01:17:55.254Z,17.19
2022-10-17T01:19:01.657Z,17.19
2022-10-17T01:21:14.515Z,17.18
2022-10-17T01:22:20.952Z,17.17
2022-10-17T01:23:27.371Z,17.16
2022-10-17T01:24:33.809Z,17.15
2022-10-17T01:26:46.642Z,17.14
2022-10-17T01:27:53.082Z,17.13
2022-10-17T01:29:18.001Z,17.11
2022-10-17T01:30:42.935Z,17.09
2022-10-17T01:32:07.906Z,17.08
2022-10-17T01:33:51.381Z,17.07
2022-10-17T01:34:57.788Z,17.07
2022-10-17T01:36:22.736Z,17.08
2022-10-17T01:37:47.800Z,17.08
2022-10-17T01:39:32.495Z,17.07
2022-10-17T01:40:37.610Z,17.06
2022-10-17T01:42:02.554Z,17.06
2022-10-17T01:43:27.507Z,17.05
2022-10-17T01:45:10.968Z,17.04
2022-10-17T01:46:35.917Z,17.03
2022-10-17T01:47:42.417Z,17.04
2022-10-17T01:48:48.791Z,17.04
2022-10-17T01:49:55.205Z,17.03
2022-10-17T01:51:01.606Z,17.02
2022-10-17T01:52:08.024Z,17.01
2022-10-17T01:54:20.887Z,16.99
2022-10-17T01:55:27.300Z,16.98
2022-10-17T01:56:33.754Z,16.98
2022-10-17T01:57:40.156Z,16.97
2022-10-17T01:58:46.589Z,16.96
2022-10-17T01:59:52.995Z,16.95
2022-10-17T02:02:05.851Z,16.94
2022-10-17T02:03:30.787Z,16.93
2022-10-17T02:04:55.802Z,16.92
2022-10-17T02:06:20.684Z,16.91
2022-10-17T02:09:10.580Z,16.89
2022-10-17T02:10:54.060Z,16.89
2022-10-17T02:12:00.549Z,16.89
2022-10-17T02:13:25.456Z,16.89
2022-10-17T02:14:50.371Z,16.88
2022-10-17T02:16:15.355Z,16.86
2022-10-17T02:17:40.283Z,16.86
2022-10-17T02:19:05.223Z,16.84
2022-10-17T02:20:30.173Z,16.83
2022-10-17T02:21:55.127Z,16.83
2022-10-17T02:23:20.086Z,16.83
2022-10-17T02:24:45.030Z,16.83
2022-10-17T02:26:28.763Z,16.82
2022-10-17T02:27:35.252Z,16.82
2022-10-17T02:29:00.201Z,16.81
2022-10-17T02:30:25.131Z,16.8
2022-10-17T02:31:50.038Z,16.79
2022-10-17T02:33:14.969Z,16.79
2022-10-17T02:34:21.409Z,16.79
2022-10-17T02:35:27.816Z,16.78
2022-10-17T02:36:34.250Z,16.78
2022-10-17T02:37:40.670Z,16.77
2022-10-17T02:38:47.089Z,16.76
2022-10-17T02:39:53.510Z,16.75
2022-10-17T02:40:59.945Z,16.73
2022-10-17T02:42:06.372Z,16.71
2022-10-17T02:43:12.823Z,16.7
2022-10-17T02:44:19.222Z,16.69
2022-10-17T02:45:25.644Z,16.68
2022-10-17T02:46:32.576Z,16.66
2022-10-17T02:47:38.971Z,16.65
2022-10-17T02:48:45.409Z,16.65
2022-10-17T02:49:51.903Z,16.65
2022-10-17T02:50:58.261Z,16.66
2022-10-17T02:52:04.785Z,16.67
2022-10-17T02:53:11.112Z,16.67
2022-10-17T02:54:17.525Z,16.67
2022-10-17T02:55:23.989Z,16.67
2022-10-17T02:57:36.816Z,16.67
2022-10-17T02:58:43.249Z,16.66
2022-10-17T02:59:49.664Z,16.65
2022-10-17T03:00:56.135Z,16.64
2022-10-17T03:02:02.499Z,16.63
2022-10-17T03:04:15.364Z,16.61
2022-10-17T03:05:21.785Z,16.61
2022-10-17T03:06:28.686Z,16.6
2022-10-17T03:07:35.118Z,16.58
2022-10-17T03:08:41.553Z,16.58
2022-10-17T03:09:47.987Z,16.57
2022-10-17T03:10:54.395Z,16.56
2022-10-17T03:12:00.834Z,16.55
2022-10-17T03:13:07.247Z,16.54
2022-10-17T03:14:13.692Z,16.53
2022-10-17T03:15:20.101Z,16.52
2022-10-17T03:16:26.520Z,16.52
2022-10-17T03:17:33.010Z,16.53
2022-10-17T03:18:39.376Z,16.53
2022-10-17T03:19:45.785Z,16.53
2022-10-17T03:20:52.228Z,16.53
2022-10-17T03:21:58.654Z,16.53
2022-10-17T03:23:05.072Z,16.53
2022-10-17T03:24:11.545Z,16.52
2022-10-17T03:25:17.976Z,16.51
2022-10-17T03:26:24.392Z,16.51
2022-10-17T03:28:37.290Z,16.5
2022-10-17T03:29:43.706Z,16.49
2022-10-17T03:30:50.094Z,16.49
2022-10-17T03:31:56.506Z,16.48
2022-10-17T03:33:02.948Z,16.48
2022-10-17T03:34:09.378Z,16.48
2022-10-17T03:35:15.799Z,16.48
2022-10-17T03:36:22.229Z,16.47
2022-10-17T03:37:28.837Z,16.46
2022-10-17T03:38:35.070Z,16.45
2022-10-17T03:40:47.926Z,16.44
2022-10-17T03:41:54.347Z,16.44
2022-10-17T03:44:07.608Z,16.43
2022-10-17T03:45:32.564Z,16.42
2022-10-17T03:47:16.016Z,16.41
2022-10-17T03:48:22.442Z,16.4
2022-10-17T03:49:47.392Z,16.38
2022-10-17T03:51:12.358Z,16.38
2022-10-17T03:52:37.337Z,16.37
2022-10-17T03:54:02.234Z,16.37
2022-10-17T03:55:27.183Z,16.36
2022-10-17T03:56:52.179Z,16.36
2022-10-17T03:58:17.595Z,16.36
2022-10-17T04:00:49.002Z,16.33
2022-10-17T04:01:55.372Z,16.32
2022-10-17T04:04:08.241Z,16.3
2022-10-17T04:05:14.644Z,16.29
2022-10-17T04:06:21.090Z,16.28
2022-10-17T04:07:27.688Z,16.27
2022-10-17T04:08:34.328Z,16.27
2022-10-17T04:09:40.753Z,16.27
2022-10-17T04:10:47.179Z,16.28
2022-10-17T04:12:12.112Z,16.26
2022-10-17T04:13:18.519Z,16.25
2022-10-17T04:14:24.966Z,16.24
2022-10-17T04:15:31.408Z,16.24
2022-10-17T04:16:37.823Z,16.23
2022-10-17T04:17:44.283Z,16.22
2022-10-17T04:18:50.696Z,16.22
2022-10-17T04:19:57.084Z,16.22
2022-10-17T04:22:09.939Z,16.21
2022-10-17T04:23:16.350Z,16.21
2022-10-17T04:24:22.785Z,16.21
2022-10-17T04:25:31.246Z,16.2
2022-10-17T04:27:42.050Z,16.18
2022-10-17T04:28:48.467Z,16.16
2022-10-17T04:29:54.910Z,16.15
2022-10-17T04:32:07.787Z,16.13
2022-10-17T04:33:51.219Z,16.1
2022-10-17T04:34:57.637Z,16.09
2022-10-17T04:36:22.595Z,16.09
2022-10-17T04:38:06.067Z,16.09
2022-10-17T04:40:37.444Z,16.07
2022-10-17T04:42:02.405Z,16.06
2022-10-17T04:43:27.368Z,16.06
2022-10-17T04:45:10.814Z,16.05
2022-10-17T04:46:17.247Z,16.04
2022-10-17T04:47:42.192Z,16.03
2022-10-17T04:48:48.580Z,16.03
2022-10-17T04:49:55.035Z,16.03
2022-10-17T04:51:01.437Z,16.03
2022-10-17T04:52:07.871Z,16.02
2022-10-17T04:53:14.303Z,16.01
2022-10-17T04:54:20.751Z,15.98
2022-10-17T04:55:27.139Z,15.97
2022-10-17T04:56:33.570Z,15.97
2022-10-17T04:57:40.137Z,15.97
2022-10-17T04:59:04.920Z,15.96
2022-10-17T05:00:11.352Z,15.95
2022-10-17T05:01:17.807Z,15.95
2022-10-17T05:02:24.199Z,15.96
2022-10-17T05:03:30.642Z,15.96
2022-10-17T05:04:37.061Z,15.96
2022-10-17T05:05:43.520Z,15.95
2022-10-17T05:06:49.885Z,15.94
2022-10-17T05:07:56.319Z,15.93
2022-10-17T05:09:03.317Z,15.91
2022-10-17T05:10:09.707Z,15.9
2022-10-17T05:11:16.134Z,15.9
2022-10-17T05:12:22.555Z,15.91
2022-10-17T05:13:28.982Z,15.91
2022-10-17T05:14:35.412Z,15.91
2022-10-17T05:15:41.833Z,15.9
2022-10-17T05:16:48.251Z,15.89
2022-10-17T05:19:01.175Z,15.88
2022-10-17T05:20:07.556Z,15.87
2022-10-17T05:21:13.966Z,15.85
2022-10-17T05:22:20.370Z,15.82
2022-10-17T05:23:26.794Z,15.8
2022-10-17T05:24:33.231Z,15.78
2022-10-17T05:25:39.653Z,15.76
2022-10-17T05:26:46.101Z,15.75
2022-10-17T05:27:52.495Z,15.74
2022-10-17T05:28:59.540Z,15.72
2022-10-17T05:31:12.305Z,15.72
2022-10-17T05:32:18.736Z,15.73
2022-10-17T05:33:25.184Z,15.75
2022-10-17T05:34:31.611Z,15.77
2022-10-17T05:35:38.009Z,15.78
2022-10-17T05:36:44.435Z,15.78
2022-10-17T05:38:57.273Z,15.76
2022-10-17T05:40:22.225Z,15.76
2022-10-17T05:41:47.163Z,15.75
2022-10-17T05:43:12.106Z,15.74
2022-10-17T05:44:37.054Z,15.74
2022-10-17T05:46:01.993Z,15.72
2022-10-17T05:47:27.238Z,15.7
2022-10-17T05:48:51.913Z,15.67
2022-10-17T05:50:16.946Z,15.66
2022-10-17T05:51:41.876Z,15.66
2022-10-17T05:53:06.824Z,15.64
2022-10-17T05:54:31.755Z,15.65
2022-10-17T05:55:38.294Z,15.65
2022-10-17T05:56:44.598Z,15.65
2022-10-17T05:57:51.036Z,15.65
2022-10-17T05:59:00.991Z,15.64
2022-10-17T06:00:03.892Z,15.63
2022-10-17T06:01:12.032Z,15.61
2022-10-17T06:02:16.778Z,15.59
2022-10-17T06:03:23.146Z,15.58
2022-10-17T06:05:36.028Z,15.57
2022-10-17T06:07:48.860Z,15.55
2022-10-17T06:09:32.306Z,15.52
2022-10-17T06:10:38.714Z,15.51
2022-10-17T06:12:03.705Z,15.51
2022-10-17T06:13:28.629Z,15.5
2022-10-17T06:14:53.595Z,15.5
2022-10-17T06:16:18.532Z,15.52
2022-10-17T06:18:02.016Z,15.54
2022-10-17T06:19:08.444Z,15.56
2022-10-17T06:20:33.369Z,15.57
2022-10-17T06:21:58.380Z,15.56
2022-10-17T06:23:23.259Z,15.55
2022-10-17T06:24:29.677Z,15.54
2022-10-17T06:25:36.101Z,15.52
2022-10-17T06:26:42.534Z,15.52
2022-10-17T06:28:55.419Z,15.51
2022-10-17T06:31:08.246Z,15.5
2022-10-17T06:32:15.187Z,15.5
2022-10-17T06:33:21.084Z,15.49
2022-10-17T06:35:34.053Z,15.49
2022-10-17T06:36:40.478Z,15.47
2022-10-17T06:38:05.436Z,15.47
2022-10-17T06:39:30.350Z,15.46
2022-10-17T06:40:55.311Z,15.46
2022-10-17T06:42:20.251Z,15.46
2022-10-17T06:43:45.203Z,15.46
2022-10-17T06:45:10.157Z,15.47
2022-10-17T06:46:35.107Z,15.48
2022-10-17T06:48:00.102Z,15.48
2022-10-17T06:49:25.017Z,15.49
2022-10-17T06:50:50.243Z,15.49
2022-10-17T06:52:15.142Z,15.5
2022-10-17T06:54:28.012Z,15.5
2022-10-17T06:55:34.427Z,15.51
2022-10-17T06:58:53.704Z,15.51
2022-10-17T07:00:00.134Z,15.49
2022-10-17T07:02:13.380Z,15.42
2022-10-17T07:03:19.817Z,15.4
2022-10-17T07:04:26.242Z,15.39
2022-10-17T07:06:39.081Z,15.39
2022-10-17T07:08:04.017Z,15.39
2022-10-17T07:09:29.042Z,15.38
2022-10-17T07:11:12.694Z,15.37
2022-10-17T07:12:18.997Z,15.38
2022-10-17T07:13:44.454Z,15.4
2022-10-17T07:15:09.388Z,15.42
2022-10-17T07:16:34.405Z,15.43
2022-10-17T07:17:59.290Z,15.44
2022-10-17T07:19:24.258Z,15.44
2022-10-17T07:20:49.201Z,15.44
2022-10-17T07:22:14.127Z,15.43
2022-10-17T07:23:20.566Z,15.44
2022-10-17T07:24:26.979Z,15.45
2022-10-17T07:25:35.197Z,15.46
2022-10-17T07:26:39.939Z,15.46
2022-10-17T07:27:46.263Z,15.47
2022-10-17T07:29:59.195Z,15.49
2022-10-17T07:31:05.545Z,15.49
2022-10-17T07:32:11.956Z,15.49
2022-10-17T07:33:18.383Z,15.49
2022-10-17T07:34:24.813Z,15.51
2022-10-17T07:35:31.239Z,15.51
2022-10-17T07:36:37.647Z,15.53
2022-10-17T07:37:44.090Z,15.53
2022-10-17T07:38:50.517Z,15.53
2022-10-17T07:41:03.362Z,15.55
2022-10-17T07:42:09.817Z,15.57
2022-10-17T07:43:16.515Z,15.59
2022-10-17T07:44:41.433Z,15.6
2022-10-17T07:46:06.390Z,15.62
2022-10-17T07:47:31.684Z,15.64
2022-10-17T07:48:56.277Z,15.67
2022-10-17T07:50:21.242Z,15.68
2022-10-17T07:53:11.149Z,15.74
2022-10-17T07:54:36.096Z,15.76
2022-10-17T07:56:01.052Z,15.79
2022-10-17T07:57:26.055Z,15.8
2022-10-17T07:58:50.960Z,15.83
2022-10-17T08:00:32.442Z,15.86
2022-10-17T08:01:38.768Z,15.88
2022-10-17T08:02:45.286Z,15.9
2022-10-17T08:03:51.630Z,15.92
2022-10-17T08:04:58.064Z,15.94
2022-10-17T08:06:04.465Z,15.96
2022-10-17T08:07:20.842Z,15.97
2022-10-17T08:08:17.525Z,16.01
2022-10-17T08:09:23.855Z,16.02
2022-10-17T08:10:30.299Z,16.03
2022-10-17T08:11:36.716Z,16.05
2022-10-17T08:13:49.597Z,16.1
2022-10-17T08:14:56.009Z,16.11
2022-10-17T08:16:02.427Z,16.13
2022-10-17T08:18:15.270Z,16.17
2022-10-17T08:19:40.209Z,16.2
2022-10-17T08:21:05.152Z,16.24
2022-10-17T08:22:30.358Z,16.27
2022-10-17T08:23:55.053Z,16.29
2022-10-17T08:25:19.994Z,16.32
2022-10-17T08:26:47.179Z,16.36
2022-10-17T08:28:09.907Z,16.39
2022-10-17T08:29:34.896Z,16.41
2022-10-17T08:30:59.796Z,16.43
2022-10-17T08:32:24.754Z,16.46
2022-10-17T08:34:56.108Z,16.51
2022-10-17T08:36:02.538Z,16.53
2022-10-17T08:37:08.962Z,16.55
2022-10-17T08:38:16.865Z,16.59
2022-10-17T08:39:21.810Z,16.61
2022-10-17T08:40:28.229Z,16.63
2022-10-17T08:41:34.654Z,16.66
2022-10-17T08:42:41.086Z,16.68
2022-10-17T08:43:47.498Z,16.7
2022-10-17T08:44:53.953Z,16.74
2022-10-17T08:46:00.392Z,16.76
2022-10-17T08:48:13.195Z,16.8
2022-10-17T08:49:19.624Z,16.82
2022-10-17T08:50:26.540Z,16.84
2022-10-17T08:51:32.977Z,16.87
2022-10-17T08:52:39.416Z,16.9
2022-10-17T08:54:52.262Z,16.97
2022-10-17T08:56:19.697Z,17.01
2022-10-17T08:57:42.134Z,17.05
2022-10-17T08:59:07.075Z,17.08
2022-10-17T09:00:32.059Z,17.1
2022-10-17T09:01:56.961Z,17.14
2022-10-17T09:03:21.943Z,17.17
2022-10-17T09:04:46.860Z,17.2
2022-10-17T09:06:11.828Z,17.22
2022-10-17T09:07:36.759Z,17.25
2022-10-17T09:09:01.731Z,17.28
2022-10-17T09:10:26.669Z,17.31
2022-10-17T09:11:51.595Z,17.34
2022-10-17T09:12:58.034Z,17.37
2022-10-17T09:14:04.502Z,17.39
2022-10-17T09:15:10.854Z,17.42
2022-10-17T09:16:17.321Z,17.44
2022-10-17T09:18:30.252Z,17.5
2022-10-17T09:20:42.994Z,17.55
2022-10-17T09:21:49.431Z,17.57
2022-10-17T09:24:09.302Z,17.63
2022-10-17T09:25:45.848Z,17.67
2022-10-17T09:26:52.243Z,17.71
2022-10-17T09:28:17.205Z,17.76
2022-10-17T09:29:43.910Z,17.8
2022-10-17T09:31:07.126Z,17.84
2022-10-17T09:32:32.309Z,17.89
2022-10-17T09:33:57.014Z,17.94
2022-10-17T09:35:21.945Z,17.97
2022-10-17T09:37:05.424Z,18.01
2022-10-17T09:38:11.865Z,18.03
2022-10-17T09:40:43.202Z,18.11
2022-10-17T09:42:56.055Z,18.2
2022-10-17T09:45:08.896Z,18.25
2022-10-17T09:46:15.319Z,18.28
2022-10-17T09:47:21.761Z,18.31
2022-10-17T09:48:28.244Z,18.34
2022-10-17T09:49:34.650Z,18.41
2022-10-17T09:50:41.080Z,18.45
2022-10-17T09:51:47.496Z,18.51
2022-10-17T09:52:53.910Z,18.55
2022-10-17T09:54:18.865Z,18.6
2022-10-17T09:55:43.799Z,18.64
2022-10-17T09:57:08.758Z,18.67
2022-10-17T09:58:33.704Z,18.7
2022-10-17T09:59:58.745Z,18.74
2022-10-17T10:01:24.114Z,18.8
2022-10-17T10:02:48.563Z,18.86
2022-10-17T10:04:13.551Z,18.9
2022-10-17T10:05:38.474Z,18.93
2022-10-17T10:07:03.414Z,18.96
2022-10-17T10:08:28.327Z,19
2022-10-17T10:10:41.197Z,19.06
2022-10-17T10:11:47.610Z,19.1
2022-10-17T10:12:54.103Z,19.15
2022-10-17T10:14:00.512Z,19.24
2022-10-17T10:15:06.941Z,19.27
2022-10-17T10:16:13.350Z,19.29
2022-10-17T10:17:19.894Z,19.32
2022-10-17T10:18:26.313Z,19.35
2022-10-17T10:19:32.671Z,19.4
2022-10-17T10:20:39.067Z,19.44
2022-10-17T10:21:47.110Z,19.46
2022-10-17T10:22:52.911Z,19.47
2022-10-17T10:25:04.775Z,19.51
2022-10-17T10:26:29.682Z,19.55
2022-10-17T10:28:13.159Z,19.58
2022-10-17T10:29:19.594Z,19.62
2022-10-17T10:30:44.541Z,19.66
2022-10-17T10:32:09.495Z,19.69
2022-10-17T10:33:34.441Z,19.75
2022-10-17T10:34:59.411Z,19.8
2022-10-17T10:36:24.857Z,19.84
2022-10-17T10:37:50.217Z,19.86
2022-10-17T10:39:15.262Z,19.89
2022-10-17T10:40:40.094Z,19.92
2022-10-17T10:42:52.965Z,19.97
2022-10-17T10:43:59.356Z,20
2022-10-17T10:45:05.794Z,20.02
2022-10-17T10:46:12.237Z,20.05
2022-10-17T10:47:18.651Z,20.08
2022-10-17T10:48:25.073Z,20.1
2022-10-17T10:49:31.508Z,20.15
2022-10-17T10:50:39.654Z,20.22
2022-10-17T10:51:44.377Z,20.25
2022-10-17T10:52:50.779Z,20.27
2022-10-17T10:53:57.206Z,20.3
2022-10-17T10:55:03.645Z,20.33
2022-10-17T10:56:10.062Z,20.35
2022-10-17T10:58:23.352Z,20.4
2022-10-17T10:59:48.294Z,20.42
2022-10-17T11:01:13.338Z,20.44
2022-10-17T11:02:38.225Z,20.47
2022-10-17T11:04:03.130Z,20.51
2022-10-17T11:05:28.095Z,20.55
2022-10-17T11:07:11.600Z,20.59
2022-10-17T11:08:17.984Z,20.61
2022-10-17T11:09:42.936Z,20.64
2022-10-17T11:11:07.886Z,20.68
2022-10-17T11:12:33.375Z,20.72
2022-10-17T11:13:58.743Z,20.74
2022-10-17T11:15:05.163Z,20.78
2022-10-17T11:16:11.572Z,20.81
2022-10-17T11:17:18.026Z,20.84
2022-10-17T11:18:24.445Z,20.87
2022-10-17T11:19:30.896Z,20.9
2022-10-17T11:20:37.307Z,20.94
2022-10-17T11:21:43.785Z,20.96
2022-10-17T11:22:50.188Z,20.98
2022-10-17T11:23:56.572Z,20.99
2022-10-17T11:25:02.983Z,21.01
2022-10-17T11:26:09.431Z,21.04
2022-10-17T11:27:15.953Z,21.08
2022-10-17T11:28:22.313Z,21.1
2022-10-17T11:29:28.696Z,21.12
2022-10-17T11:30:35.159Z,21.14
2022-10-17T11:31:41.550Z,21.17
2022-10-17T11:35:01.262Z,21.24
2022-10-17T11:36:26.189Z,21.27
2022-10-17T11:37:51.141Z,21.29
2022-10-17T11:39:16.125Z,21.32
2022-10-17T11:40:41.045Z,21.35
2022-10-17T11:42:05.997Z,21.38
2022-10-17T11:43:30.936Z,21.42
2022-10-17T11:44:55.883Z,21.44
2022-10-17T11:46:20.837Z,21.47
2022-10-17T11:48:04.324Z,21.49
2022-10-17T11:49:10.816Z,21.52
2022-10-17T11:52:56.232Z,21.59
2022-10-17T11:53:54.936Z,21.61
2022-10-17T11:55:01.398Z,21.63
2022-10-17T11:56:07.799Z,21.65
2022-10-17T11:57:14.894Z,21.67
2022-10-17T11:59:27.379Z,21.72
2022-10-17T12:00:34.896Z,21.74
2022-10-17T12:02:46.672Z,21.77
2022-10-17T12:04:59.505Z,21.82
2022-10-17T12:06:28.539Z,21.84
2022-10-17T12:07:49.400Z,21.87
2022-10-17T12:09:14.338Z,21.9
2022-10-17T12:10:39.334Z,21.93
2022-10-17T12:12:04.239Z,21.96
2022-10-17T12:13:29.199Z,21.98
2022-10-17T12:14:54.156Z,22.01
2022-10-17T12:16:19.101Z,22.04
2022-10-17T12:17:44.029Z,22.06
2022-10-17T12:19:08.982Z,22.09
2022-10-17T12:20:33.925Z,22.12
2022-10-17T12:21:42.770Z,22.14
2022-10-17T12:23:53.253Z,22.21
2022-10-17T12:24:59.756Z,22.23
2022-10-17T12:26:06.114Z,22.24
2022-10-17T12:27:12.514Z,22.25
2022-10-17T12:28:18.954Z,22.27
2022-10-17T12:29:25.377Z,22.29
2022-10-17T12:30:31.802Z,22.31
2022-10-17T12:31:38.221Z,22.33
2022-10-17T12:33:00.241Z,22.35
2022-10-17T12:34:57.502Z,22.39
2022-10-17T12:37:47.388Z,22.45
2022-10-17T12:39:12.324Z,22.47
2022-10-17T12:40:37.257Z,22.5
2022-10-17T12:42:20.758Z,22.52
2022-10-17T12:43:27.163Z,22.54
2022-10-17T12:44:52.110Z,22.57
2022-10-17T12:46:17.097Z,22.59
2022-10-17T12:48:00.533Z,22.62
2022-10-17T12:49:06.945Z,22.64
2022-10-17T12:50:50.441Z,22.67
2022-10-17T12:51:56.861Z,22.7
2022-10-17T12:54:47.309Z,22.75
2022-10-17T12:56:11.710Z,22.76
2022-10-17T12:57:36.676Z,22.79
2022-10-17T12:59:01.605Z,22.82
2022-10-17T13:00:26.609Z,22.84
2022-10-17T13:01:51.571Z,22.86
2022-10-17T13:03:16.463Z,22.89
2022-10-17T13:04:41.422Z,22.91
2022-10-17T13:06:06.367Z,22.92
2022-10-17T13:07:31.603Z,22.94
2022-10-17T13:08:59.829Z,22.96
2022-10-17T13:10:21.238Z,22.99
2022-10-17T13:11:27.631Z,23
2022-10-17T13:12:36.590Z,23.01
2022-10-17T13:13:40.744Z,23.04
2022-10-17T13:14:47.141Z,23.05
2022-10-17T13:15:53.556Z,23.06
2022-10-17T13:16:59.978Z,23.07
2022-10-17T13:18:06.415Z,23.09
2022-10-17T13:20:22.774Z,23.12
2022-10-17T13:21:25.699Z,23.14
2022-10-17T13:22:32.677Z,23.15
2022-10-17T13:23:38.530Z,23.17
2022-10-17T13:24:44.959Z,23.18
2022-10-17T13:25:51.389Z,23.2
2022-10-17T13:26:57.800Z,23.21
2022-10-17T13:28:04.246Z,23.22
2022-10-17T13:30:17.102Z,23.23
2022-10-17T13:31:42.035Z,23.24
2022-10-17T13:33:06.957Z,23.25
2022-10-17T13:34:31.998Z,23.26
2022-10-17T13:36:00.238Z,23.27
2022-10-17T13:37:40.338Z,23.28
2022-10-17T13:38:46.777Z,23.29
2022-10-17T13:40:31.079Z,23.31
2022-10-17T13:41:37.250Z,23.33
2022-10-17T13:43:20.143Z,23.33
2022-10-17T13:44:26.582Z,23.34
2022-10-17T13:45:51.539Z,23.36
2022-10-17T13:46:57.921Z,23.36
2022-10-17T13:48:04.351Z,23.37
2022-10-17T13:49:10.765Z,23.37
2022-10-17T13:50:32.668Z,23.38
2022-10-17T13:52:30.508Z,23.39
2022-10-17T13:53:36.485Z,23.39
2022-10-17T13:54:42.898Z,23.4
2022-10-17T13:58:02.664Z,23.41
2022-10-17T13:59:27.585Z,23.42
2022-10-17T14:00:52.600Z,23.43
2022-10-17T14:02:17.531Z,23.44
2022-10-17T14:03:48.442Z,23.44
2022-10-17T14:05:22.899Z,23.45
2022-10-17T14:06:52.202Z,23.45
2022-10-17T14:08:15.176Z,23.45
2022-10-17T14:09:22.256Z,23.45
2022-10-17T14:11:05.729Z,23.45
2022-10-17T14:12:12.139Z,23.46
2022-10-17T14:13:37.075Z,23.46
2022-10-17T14:15:05.528Z,23.46
2022-10-17T14:15:49.939Z,23.47
2022-10-17T14:16:56.379Z,23.47
2022-10-17T14:18:06.799Z,23.47
2022-10-17T14:19:09.214Z,23.47
2022-10-17T14:20:48.147Z,23.47
2022-10-17T14:21:40.768Z,23.47
2022-10-17T14:22:28.793Z,23.48
2022-10-17T14:23:35.197Z,23.48
2022-10-17T14:25:48.054Z,23.48
2022-10-17T14:26:54.489Z,23.48
2022-10-17T14:28:00.920Z,23.47
2022-10-17T14:29:07.432Z,23.47
2022-10-17T14:30:13.771Z,23.46
2022-10-17T14:31:20.197Z,23.46
2022-10-17T14:33:33.388Z,23.45
2022-10-17T14:35:05.654Z,23.44
2022-10-17T14:36:22.937Z,23.43
2022-10-17T14:37:47.889Z,23.42
2022-10-17T14:39:14.460Z,23.41
2022-10-17T14:40:38.317Z,23.4
2022-10-17T14:42:21.847Z,23.4
2022-10-17T14:43:28.198Z,23.39
2022-10-17T14:44:53.154Z,23.38
2022-10-17T14:46:18.103Z,23.36
2022-10-17T14:48:01.584Z,23.36
2022-10-17T14:50:32.999Z,23.35
2022-10-17T14:51:44.646Z,23.35
2022-10-17T14:52:45.786Z,23.34
2022-10-17T14:53:52.328Z,23.33
2022-10-17T14:54:58.729Z,23.33
2022-10-17T14:56:05.165Z,23.32
2022-10-17T14:57:11.629Z,23.32
2022-10-17T14:58:18.021Z,23.32
2022-10-17T15:00:30.879Z,23.3
2022-10-17T15:01:37.275Z,23.28
2022-10-17T15:02:43.722Z,23.27
2022-10-17T15:03:50.126Z,23.26
2022-10-17T15:04:56.566Z,23.25
2022-10-17T15:06:03.035Z,23.25
2022-10-17T15:07:09.474Z,23.25
2022-10-17T15:08:15.841Z,23.24
2022-10-17T15:09:22.271Z,23.23
2022-10-17T15:10:28.697Z,23.23
2022-10-17T15:11:35.125Z,23.22
2022-10-17T15:12:47.876Z,23.22
2022-10-17T15:13:48.471Z,23.21
2022-10-17T15:14:54.913Z,23.2
2022-10-17T15:16:01.332Z,23.19
2022-10-17T15:17:07.760Z,23.19
2022-10-17T15:18:14.180Z,23.18
2022-10-17T15:19:20.600Z,23.17
2022-10-17T15:20:27.026Z,23.16
2022-10-17T15:21:39.438Z,23.16
2022-10-17T15:22:39.912Z,23.15
2022-10-17T15:23:46.311Z,23.14
2022-10-17T15:24:52.727Z,23.13
2022-10-17T15:25:59.189Z,23.12
2022-10-17T15:27:05.584Z,23.11
2022-10-17T15:28:12.025Z,23.1
2022-10-17T15:29:18.420Z,23.1
2022-10-17T15:30:24.873Z,23.09
2022-10-17T15:31:31.355Z,23.08
2022-10-17T15:32:37.787Z,23.07
2022-10-17T15:33:44.199Z,23.06
2022-10-17T15:34:50.632Z,23.06
2022-10-17T15:37:03.501Z,23.04
2022-10-17T15:38:09.914Z,23.03
2022-10-17T15:39:16.354Z,23.02
2022-10-17T15:40:22.761Z,23.01
2022-10-17T15:41:48.105Z,22.99
2022-10-17T15:42:54.571Z,22.98
2022-10-17T15:44:00.956Z,22.98
2022-10-17T15:46:13.813Z,22.95
2022-10-17T15:47:20.223Z,22.94
2022-10-17T15:48:26.644Z,22.93
2022-10-17T15:49:33.062Z,22.92
2022-10-17T15:50:39.501Z,22.91
2022-10-17T15:51:45.928Z,22.91
2022-10-17T15:52:52.392Z,22.9
2022-10-17T15:53:58.817Z,22.89
2022-10-17T15:55:05.437Z,22.89
2022-10-17T15:56:11.721Z,22.88
2022-10-17T15:57:18.042Z,22.87
2022-10-17T15:58:24.476Z,22.86
2022-10-17T15:59:30.969Z,22.85
2022-10-17T16:00:37.482Z,22.84
2022-10-17T16:01:43.805Z,22.83
2022-10-17T16:02:50.238Z,22.83
2022-10-17T16:03:56.665Z,22.82
2022-10-17T16:05:03.115Z,22.81
2022-10-17T16:06:09.640Z,22.8
2022-10-17T16:07:15.934Z,22.79
2022-10-17T16:08:22.388Z,22.78
2022-10-17T16:09:28.790Z,22.77
2022-10-17T16:10:35.209Z,22.76
2022-10-17T16:12:48.057Z,22.73
2022-10-17T16:13:54.479Z,22.72
2022-10-17T16:15:00.938Z,22.71
2022-10-17T16:16:07.350Z,22.7
2022-10-17T16:17:13.761Z,22.69
2022-10-17T16:18:20.634Z,22.69
2022-10-17T16:19:27.054Z,22.68
2022-10-17T16:20:33.465Z,22.67
2022-10-17T16:21:39.888Z,22.65
2022-10-17T16:22:46.312Z,22.65
2022-10-17T16:23:52.772Z,22.64
2022-10-17T16:24:59.203Z,22.63
2022-10-17T16:26:05.580Z,22.62
2022-10-17T16:27:12.017Z,22.61
2022-10-17T16:28:18.448Z,22.6
2022-10-17T16:29:24.863Z,22.6
2022-10-17T16:31:37.735Z,22.57
2022-10-17T16:32:44.149Z,22.56
2022-10-17T16:34:57.021Z,22.54
2022-10-17T16:36:40.440Z,22.53
2022-10-17T16:37:47.329Z,22.51
2022-10-17T16:39:12.735Z,22.51
2022-10-17T16:40:37.654Z,22.49
2022-10-17T16:42:02.601Z,22.48
2022-10-17T16:43:27.551Z,22.47
2022-10-17T16:44:52.513Z,22.45
2022-10-17T16:46:17.516Z,22.44
2022-10-17T16:47:42.396Z,22.43
2022-10-17T16:49:07.352Z,22.42
2022-10-17T16:50:32.302Z,22.4
2022-10-17T16:51:38.733Z,22.39
2022-10-17T16:52:45.144Z,22.38
2022-10-17T16:54:58.017Z,22.36
2022-10-17T16:56:04.416Z,22.34
2022-10-17T16:58:17.252Z,22.32
2022-10-17T16:59:23.697Z,22.31
2022-10-17T17:00:30.200Z,22.3
2022-10-17T17:01:36.666Z,22.29
2022-10-17T17:02:43.102Z,22.28
2022-10-17T17:04:26.546Z,22.27
2022-10-17T17:05:32.983Z,22.26
2022-10-17T17:06:57.934Z,22.24
2022-10-17T17:08:22.896Z,22.23
2022-10-17T17:09:47.833Z,22.22
2022-10-17T17:11:12.806Z,22.2
2022-10-17T17:12:56.257Z,22.19
2022-10-17T17:14:02.680Z,22.17
2022-10-17T17:15:27.623Z,22.16
2022-10-17T17:16:52.824Z,22.15
2022-10-17T17:18:17.774Z,22.14
2022-10-17T17:19:24.183Z,22.12
2022-10-17T17:20:30.646Z,22.11
2022-10-17T17:21:37.043Z,22.1
2022-10-17T17:22:43.463Z,22.09
2022-10-17T17:23:49.917Z,22.08
2022-10-17T17:24:56.344Z,22.07
2022-10-17T17:26:02.744Z,22.06
2022-10-17T17:27:11.276Z,22.05
2022-10-17T17:28:16.006Z,22.04
2022-10-17T17:29:22.443Z,22.04
2022-10-17T17:30:28.854Z,22.02
2022-10-17T17:32:41.733Z,21.99
2022-10-17T17:34:54.564Z,21.97